Time;durP1;ratioP1;P1;durP2;ratioP2;P2;SDS_P1;SDS_P2;PMS_P1;PMS_P2;Temp;Humidity;BMP_temperature;BMP_pressure;BME280_temperature;BME280_humidity;BME280_pressure;Samples;Min_cycle;Max_cycle;Signal;HPM_P1;HPM_P2
2022/03/17 00:02:26;;;;;;;4.40;4.00;;;21.20;42.40;;;;;;5080063;28;43393;-60
2022/03/17 00:04:54;;;;;;;4.22;3.83;;;21.10;42.40;;;;;;5083747;27;43513;-61
2022/03/17 00:07:22;;;;;;;4.47;4.07;;;21.10;42.40;;;;;;5082421;28;43533;-61
2022/03/17 00:09:49;;;;;;;4.00;3.70;;;21.10;42.40;;;;;;5079923;27;44052;-61
2022/03/17 00:12:17;;;;;;;4.65;4.25;;;21.10;42.40;;;;;;5079313;28;43433;-60
2022/03/17 00:14:44;;;;;;;4.60;4.20;;;21.10;42.40;;;;;;5074084;28;43544;-61
2022/03/17 00:17:12;;;;;;;4.75;3.80;;;21.00;42.40;;;;;;5083727;28;43495;-61
2022/03/17 00:19:39;;;;;;;4.80;4.40;;;21.10;42.50;;;;;;5076820;27;44074;-61
2022/03/17 00:22:08;;;;;;;4.50;4.10;;;21.10;42.50;;;;;;5082357;28;43414;-60
2022/03/17 00:24:37;;;;;;;4.05;3.75;;;21.10;42.50;;;;;;5080227;28;43487;-60
2022/03/17 00:27:08;;;;;;;4.50;4.10;;;21.10;42.40;;;;;;5079896;27;43485;-60
2022/03/17 00:29:39;;;;;;;4.10;3.70;;;21.00;42.40;;;;;;5103380;27;43794;-60
2022/03/17 00:32:08;;;;;;;4.50;3.92;;;21.00;42.40;;;;;;5083426;27;43784;-60
2022/03/17 00:37:26;;;;;;;4.18;3.78;;;21.00;42.40;;;;;;5059668;27;44071;-60
2022/03/17 00:39:54;;;;;;;4.20;3.90;;;21.00;42.40;;;;;;5082940;27;44987;-61
2022/03/17 00:42:22;;;;;;;4.00;3.70;;;21.00;42.30;;;;;;5083333;27;43396;-61
2022/03/17 00:44:50;;;;;;;4.22;3.85;;;21.00;42.40;;;;;;5083088;27;43458;-60
2022/03/17 00:47:20;;;;;;;4.40;4.00;;;21.00;42.40;;;;;;5079846;28;43558;-60
2022/03/17 00:49:48;;;;;;;4.28;3.88;;;21.00;42.40;;;;;;5082994;27;43797;-60
2022/03/17 00:52:20;;;;;;;4.72;4.32;;;21.00;42.40;;;;;;5082788;27;43779;-61
2022/03/17 00:54:47;;;;;;;4.00;3.60;;;21.00;42.40;;;;;;5082779;27;43409;-60
2022/03/17 00:57:15;;;;;;;4.32;4.03;;;20.90;42.40;;;;;;5083026;27;43486;-60
2022/03/17 00:59:42;;;;;;;4.35;4.05;;;21.00;42.40;;;;;;5074201;28;43811;-61
2022/03/17 01:02:10;;;;;;;4.47;4.10;;;20.90;42.40;;;;;;5075942;27;43428;-61
2022/03/17 01:04:37;;;;;;;4.57;4.18;;;20.90;42.40;;;;;;5086300;27;43489;-61
2022/03/17 01:07:05;;;;;;;4.72;4.03;;;20.90;42.40;;;;;;5086585;28;43524;-61
2022/03/17 01:09:33;;;;;;;4.30;4.00;;;20.90;42.40;;;;;;5085489;28;44044;-61
2022/03/17 01:12:03;;;;;;;3.97;3.57;;;20.90;42.40;;;;;;5086322;27;43484;-60
2022/03/17 01:14:30;;;;;;;4.35;3.95;;;20.90;42.40;;;;;;5085372;27;43380;-61
2022/03/17 01:16:58;;;;;;;4.15;3.85;;;20.90;42.40;;;;;;5086470;28;43652;-60
2022/03/17 01:19:26;;;;;;;3.90;3.60;;;20.80;42.30;;;;;;5085662;28;44202;-60
2022/03/17 01:21:54;;;;;;;4.60;4.20;;;20.90;42.50;;;;;;5086110;27;43687;-61
2022/03/17 01:24:21;;;;;;;4.20;3.80;;;20.80;42.40;;;;;;5085982;27;43433;-60
2022/03/17 01:26:48;;;;;;;4.63;4.22;;;20.90;42.40;;;;;;5086151;27;43451;-61
2022/03/17 01:29:21;;;;;;;4.20;3.90;;;20.80;42.30;;;;;;5086088;27;44036;-60
2022/03/17 01:31:50;;;;;;;4.30;3.90;;;20.80;42.40;;;;;;5080399;28;43499;-60
2022/03/17 01:34:18;;;;;;;4.22;3.83;;;20.80;42.30;;;;;;5078871;28;43497;-60
2022/03/17 01:36:45;;;;;;;4.05;3.75;;;20.80;42.30;;;;;;5085377;28;43462;-60
2022/03/17 01:39:13;;;;;;;4.47;4.07;;;20.80;42.50;;;;;;5082350;27;44775;-61
2022/03/17 01:41:40;;;;;;;4.90;4.50;;;20.80;42.40;;;;;;5085691;27;43736;-61
2022/03/17 01:44:08;;;;;;;4.43;4.03;;;20.80;42.40;;;;;;5080900;28;43428;-61
2022/03/17 01:47:26;;;;;;;4.53;4.13;;;20.80;42.40;;;;;;5084448;27;43402;-61
2022/03/17 01:49:23;;;;;;;4.35;3.92;;;20.80;43.10;;;;;;5085242;27;45260;-61
2022/03/17 01:51:50;;;;;;;4.10;3.80;;;20.80;42.40;;;;;;5083400;28;43517;-60
2022/03/17 01:54:19;;;;;;;4.85;4.45;;;20.80;42.40;;;;;;5083768;28;43529;-60
2022/03/17 01:57:05;;;;;;;4.88;4.38;;;20.80;42.50;;;;;;5082103;28;43415;-60
2022/03/17 01:59:35;;;;;;;4.38;3.97;;;20.80;42.40;;;;;;5081760;27;44203;-60
2022/03/17 02:02:08;;;;;;;4.40;4.00;;;20.80;42.40;;;;;;5084554;27;43701;-60
2022/03/17 02:04:36;;;;;;;4.03;3.72;;;20.80;42.40;;;;;;5082547;27;43953;-61
2022/03/17 02:07:05;;;;;;;4.32;3.92;;;20.80;42.50;;;;;;5085627;27;43395;-60
2022/03/17 02:09:36;;;;;;;4.35;3.95;;;20.70;42.40;;;;;;5083195;28;43812;-61
2022/03/17 02:14:55;;;;;;;3.90;3.60;;;20.70;42.50;;;;;;5077574;28;43468;-60
2022/03/17 02:17:22;;;;;;;4.35;3.95;;;20.70;42.50;;;;;;5084573;28;43523;-61
2022/03/17 02:19:50;;;;;;;4.53;4.13;;;20.70;42.50;;;;;;5079260;28;44067;-61
2022/03/17 02:22:20;;;;;;;4.20;3.80;;;20.70;42.50;;;;;;5081539;27;43454;-60
2022/03/17 02:27:45;;;;;;;4.10;3.80;;;20.70;42.50;;;;;;5064720;28;43652;-61
2022/03/17 02:30:18;;;;;;;4.57;4.18;;;20.70;42.50;;;;;;5084950;27;44715;-60
2022/03/17 02:32:46;;;;;;;3.75;3.45;;;20.70;42.50;;;;;;5084993;27;43725;-61
2022/03/17 02:35:23;;;;;;;4.07;3.78;;;20.70;42.50;;;;;;5083623;28;43602;-61
2022/03/17 02:37:51;;;;;;;4.53;4.13;;;20.70;42.50;;;;;;5084893;27;43512;-60
2022/03/17 02:40:19;;;;;;;4.20;3.90;;;20.70;42.50;;;;;;5084732;27;43786;-61
2022/03/17 02:42:46;;;;;;;4.40;4.10;;;20.60;42.50;;;;;;5084685;27;43408;-60
2022/03/17 02:45:14;;;;;;;4.45;4.10;;;20.70;42.60;;;;;;5084530;27;43454;-60
2022/03/17 02:47:42;;;;;;;4.40;4.00;;;20.60;42.50;;;;;;5084396;27;43981;-61
2022/03/17 02:50:10;;;;;;;4.00;3.60;;;20.60;42.50;;;;;;5084793;27;44715;-61
2022/03/17 02:52:39;;;;;;;4.78;4.38;;;20.60;42.50;;;;;;5084532;27;43714;-61
2022/03/17 02:55:08;;;;;;;4.05;3.65;;;20.60;42.50;;;;;;5084606;27;43457;-60
2022/03/17 02:57:36;;;;;;;4.20;3.90;;;20.60;42.50;;;;;;5079482;28;43530;-60
2022/03/17 03:00:07;;;;;;;4.05;3.75;;;20.60;42.60;;;;;;5084393;27;44802;-60
2022/03/17 03:02:35;;;;;;;4.45;4.05;;;20.60;42.60;;;;;;5080466;27;44157;-61
2022/03/17 03:05:04;;;;;;;4.50;4.10;;;20.60;42.60;;;;;;5097875;27;43467;-61
2022/03/17 03:07:32;;;;;;;4.53;4.13;;;20.60;42.60;;;;;;5081213;27;43474;-61
2022/03/17 03:10:00;;;;;;;4.72;4.32;;;20.60;42.60;;;;;;5084384;27;44696;-61
2022/03/17 03:12:28;;;;;;;4.68;4.28;;;20.60;42.60;;;;;;5079791;28;43570;-61
2022/03/17 03:14:55;;;;;;;4.70;4.30;;;20.60;42.60;;;;;;5072872;28;43442;-61
2022/03/17 03:17:23;;;;;;;4.40;4.10;;;20.50;42.60;;;;;;5084549;28;43465;-61
2022/03/17 03:19:51;;;;;;;4.30;4.00;;;20.50;42.60;;;;;;5082047;28;44027;-60
2022/03/17 03:22:18;;;;;;;4.15;3.80;;;20.50;42.60;;;;;;5082972;27;43411;-60
2022/03/17 03:24:46;;;;;;;4.40;4.00;;;20.50;42.60;;;;;;5107150;27;43441;-60
2022/03/17 03:27:14;;;;;;;4.13;3.83;;;20.50;42.60;;;;;;5073777;28;43421;-61
2022/03/17 03:29:42;;;;;;;4.20;3.85;;;20.50;42.60;;;;;;5083635;28;44076;-61
2022/03/17 03:32:10;;;;;;;4.22;3.92;;;20.50;42.60;;;;;;5082846;28;43973;-61
2022/03/17 03:34:37;;;;;;;3.88;3.58;;;20.50;42.70;;;;;;5105714;27;43662;-60
2022/03/17 03:37:23;;;;;;;4.25;3.95;;;20.50;42.70;;;;;;5078785;28;43435;-60
2022/03/17 03:39:51;;;;;;;3.97;3.67;;;20.50;42.70;;;;;;5083680;27;44714;-60
2022/03/17 03:42:19;;;;;;;4.40;4.00;;;20.40;42.60;;;;;;5077005;28;43464;-61
2022/03/17 03:44:47;;;;;;;4.20;3.83;;;20.50;42.70;;;;;;5082595;28;43481;-60
2022/03/17 03:47:15;;;;;;;4.00;3.70;;;20.50;42.70;;;;;;5082739;27;43434;-60
2022/03/17 03:49:43;;;;;;;4.25;3.85;;;20.50;42.70;;;;;;5083285;27;44935;-60
2022/03/17 03:52:12;;;;;;;4.15;3.85;;;20.50;42.70;;;;;;5077366;28;43724;-60
2022/03/17 03:54:41;;;;;;;3.97;3.63;;;20.40;42.70;;;;;;5083399;27;43465;-60
2022/03/17 03:57:09;;;;;;;4.03;3.72;;;20.40;42.70;;;;;;5080301;27;43565;-61
2022/03/17 03:59:38;;;;;;;4.30;4.00;;;20.50;42.70;;;;;;5079898;27;44056;-61
2022/03/17 04:02:08;;;;;;;3.95;3.65;;;20.40;42.70;;;;;;5082797;27;43552;-60
2022/03/17 04:04:41;;;;;;;3.90;3.60;;;20.40;42.70;;;;;;5075678;28;43615;-60
2022/03/17 04:07:10;;;;;;;4.43;4.05;;;20.40;42.70;;;;;;5083560;27;43486;-60
2022/03/17 04:09:40;;;;;;;4.03;3.72;;;20.40;42.70;;;;;;5078185;28;43876;-61
2022/03/17 04:12:10;;;;;;;4.07;3.78;;;20.40;42.70;;;;;;5083218;27;43930;-60
2022/03/17 04:14:38;;;;;;;3.65;3.42;;;20.40;42.70;;;;;;5083051;27;43438;-61
2022/03/17 04:17:06;;;;;;;4.15;3.72;;;20.40;42.80;;;;;;5083539;27;43558;-61
2022/03/17 04:19:34;;;;;;;4.00;3.65;;;20.40;42.80;;;;;;5082933;28;43798;-61
2022/03/17 04:22:02;;;;;;;3.95;3.65;;;20.40;42.80;;;;;;5082999;28;44007;-61
2022/03/17 04:24:29;;;;;;;3.65;3.35;;;20.40;42.80;;;;;;5077211;28;43490;-61
2022/03/17 04:26:57;;;;;;;3.78;3.47;;;20.40;42.90;;;;;;5083410;27;43404;-61
2022/03/17 04:29:24;;;;;;;3.90;3.60;;;20.30;42.70;;;;;;5082953;27;43789;-61
2022/03/17 04:31:52;;;;;;;3.70;3.40;;;20.40;42.90;;;;;;5081102;28;43964;-61
2022/03/17 04:34:20;;;;;;;3.65;3.45;;;20.30;42.80;;;;;;5079730;27;43432;-61
2022/03/17 04:36:47;;;;;;;3.88;3.58;;;20.30;42.90;;;;;;5084427;27;43545;-61
2022/03/17 04:39:15;;;;;;;3.70;3.40;;;20.30;42.90;;;;;;5083143;27;43789;-61
2022/03/17 04:41:43;;;;;;;4.20;3.80;;;20.30;42.90;;;;;;5084592;28;43685;-61
2022/03/17 04:44:12;;;;;;;4.22;3.75;;;20.30;42.90;;;;;;5086907;28;43430;-62
2022/03/17 04:46:46;;;;;;;4.07;3.78;;;20.30;43.00;;;;;;5083385;27;43971;-61
2022/03/17 04:49:14;;;;;;;3.92;3.63;;;20.30;43.00;;;;;;5080506;28;44035;-61
2022/03/17 04:51:41;;;;;;;3.90;3.60;;;20.30;43.00;;;;;;5085202;27;43506;-61
2022/03/17 04:54:08;;;;;;;3.92;3.63;;;20.30;43.00;;;;;;5086434;27;43433;-61
2022/03/17 04:56:36;;;;;;;4.70;4.30;;;20.30;43.00;;;;;;5082975;27;43474;-61
2022/03/17 04:59:03;;;;;;;4.38;4.07;;;20.30;43.10;;;;;;5083119;28;44238;-62
2022/03/17 05:01:31;;;;;;;4.07;3.78;;;20.20;43.00;;;;;;5086216;27;43478;-61
2022/03/17 05:03:58;;;;;;;3.67;3.38;;;20.20;43.10;;;;;;5082876;27;43406;-61
2022/03/17 05:06:26;;;;;;;3.88;3.58;;;20.20;43.10;;;;;;5083078;27;43411;-61
2022/03/17 05:08:53;;;;;;;4.30;3.90;;;20.20;43.20;;;;;;5083693;28;43798;-62
2022/03/17 05:11:21;;;;;;;4.00;3.70;;;20.20;43.20;;;;;;5086344;27;43709;-61
2022/03/17 05:13:48;;;;;;;4.30;4.00;;;20.20;43.20;;;;;;5086340;27;43564;-62
2022/03/17 05:16:16;;;;;;;3.75;3.45;;;20.20;43.80;;;;;;5082706;27;43533;-61
2022/03/17 05:18:44;;;;;;;4.00;3.70;;;20.20;43.20;;;;;;5082813;28;44516;-61
2022/03/17 05:21:12;;;;;;;4.13;3.83;;;20.20;43.30;;;;;;5073577;28;43458;-61
2022/03/17 05:23:39;;;;;;;4.55;4.15;;;20.20;43.30;;;;;;5086062;27;43436;-62
2022/03/17 05:26:07;;;;;;;4.00;3.70;;;20.20;43.30;;;;;;5086371;27;43474;-62
2022/03/17 05:28:35;;;;;;;4.88;4.50;;;20.20;43.40;;;;;;5083161;28;45018;-61
2022/03/17 05:31:03;;;;;;;4.18;3.88;;;20.20;43.50;;;;;;5082454;28;43513;-61
2022/03/17 05:33:31;;;;;;;3.97;3.67;;;20.20;43.70;;;;;;5086097;27;43565;-61
2022/03/17 05:35:58;;;;;;;3.70;3.50;;;20.20;43.70;;;;;;5082541;27;43468;-61
2022/03/17 05:38:25;;;;;;;3.58;3.28;;;20.20;43.60;;;;;;5082432;27;44325;-61
2022/03/17 05:40:53;;;;;;;3.22;3.03;;;20.20;43.60;;;;;;5085660;27;43483;-61
2022/03/17 05:43:20;;;;;;;3.13;2.92;;;20.20;43.60;;;;;;5082639;27;43391;-61
2022/03/17 05:45:48;;;;;;;3.13;2.83;;;20.20;43.70;;;;;;5085726;27;43471;-62
2022/03/17 05:48:15;;;;;;;2.40;2.30;;;20.20;43.80;;;;;;5081943;27;43785;-61
2022/03/17 05:50:45;;;;;;;2.67;2.47;;;20.20;43.80;;;;;;5085811;28;43433;-61
2022/03/17 05:53:12;;;;;;;2.38;2.28;;;20.20;43.80;;;;;;5085903;27;43396;-61
2022/03/17 05:55:40;;;;;;;2.50;2.30;;;20.20;43.80;;;;;;5082080;27;43505;-61
2022/03/17 05:58:07;;;;;;;2.50;2.40;;;20.20;43.90;;;;;;5083691;28;46194;-62
2022/03/17 06:00:35;;;;;;;2.42;2.22;;;20.20;43.90;;;;;;5085574;27;43398;-61
2022/03/17 06:03:06;;;;;;;2.40;2.20;;;20.20;43.90;;;;;;5080699;28;43458;-61
2022/03/17 06:05:34;;;;;;;2.17;2.08;;;20.20;43.90;;;;;;5083107;27;43529;-61
2022/03/17 06:08:08;;;;;;;2.58;2.22;;;20.20;43.90;;;;;;5085357;27;44775;-61
2022/03/17 06:10:37;;;;;;;2.42;2.15;;;20.20;44.10;;;;;;5086538;27;43441;-61
2022/03/17 06:13:07;;;;;;;2.35;2.10;;;20.20;44.10;;;;;;5084808;27;43515;-61
2022/03/17 06:15:36;;;;;;;2.15;2.05;;;20.20;44.10;;;;;;5083859;28;43534;-62
2022/03/17 06:18:05;;;;;;;3.10;2.28;;;20.20;44.20;;;;;;5085103;27;43639;-61
2022/03/17 06:20:35;;;;;;;2.20;2.00;;;20.20;44.10;;;;;;5084897;27;43502;-61
2022/03/17 06:23:05;;;;;;;3.60;2.13;;;20.20;44.20;;;;;;5085119;27;43433;-61
2022/03/17 06:25:34;;;;;;;2.45;2.00;;;20.20;44.20;;;;;;5085015;28;43616;-61
2022/03/17 06:28:10;;;;;;;1.80;1.70;;;20.30;44.10;;;;;;5085016;27;44045;-61
2022/03/17 06:30:38;;;;;;;2.25;1.65;;;20.30;44.10;;;;;;5080920;28;44029;-61
2022/03/17 06:33:06;;;;;;;2.17;1.50;;;20.30;44.20;;;;;;5084355;28;43584;-61
2022/03/17 06:35:34;;;;;;;2.70;1.80;;;20.30;44.10;;;;;;5081625;28;43563;-60
2022/03/17 06:38:04;;;;;;;2.63;1.60;;;20.30;44.20;;;;;;5085194;27;43796;-60
2022/03/17 06:40:33;;;;;;;1.98;1.50;;;20.30;44.10;;;;;;5081605;28;43479;-61
2022/03/17 06:43:01;;;;;;;3.15;2.00;;;20.30;44.10;;;;;;5083330;27;43460;-60
2022/03/17 06:45:29;;;;;;;1.98;1.50;;;20.30;44.10;;;;;;5083943;28;43509;-61
2022/03/17 06:47:57;;;;;;;2.63;1.67;;;20.40;44.00;;;;;;5081377;27;44650;-61
2022/03/17 06:50:25;;;;;;;2.25;1.42;;;20.40;44.00;;;;;;5084484;27;44032;-61
2022/03/17 06:52:54;;;;;;;2.67;1.85;;;20.40;43.90;;;;;;5082457;28;44058;-60
2022/03/17 06:55:22;;;;;;;2.78;1.70;;;20.40;44.10;;;;;;5079740;28;43522;-61
2022/03/17 06:57:50;;;;;;;2.22;1.42;;;20.40;44.00;;;;;;5080372;27;44369;-60
2022/03/17 07:00:19;;;;;;;1.73;1.40;;;20.40;44.00;;;;;;5083835;27;43681;-60
2022/03/17 07:02:47;;;;;;;2.80;1.50;;;20.40;44.00;;;;;;5076036;27;43510;-60
2022/03/17 07:05:15;;;;;;;3.05;1.45;;;20.40;44.00;;;;;;5084471;27;43623;-61
2022/03/17 07:07:43;;;;;;;2.80;1.65;;;20.40;43.90;;;;;;5084406;27;45234;-60
2022/03/17 07:10:12;;;;;;;1.73;1.38;;;20.50;44.00;;;;;;5084186;28;43949;-60
2022/03/17 07:12:41;;;;;;;2.08;1.40;;;20.50;43.90;;;;;;5083884;28;43523;-61
2022/03/17 07:15:10;;;;;;;2.03;1.40;;;20.50;43.90;;;;;;5077082;28;43551;-61
2022/03/17 07:17:42;;;;;;;2.50;1.35;;;20.50;43.90;;;;;;5083775;28;43851;-60
2022/03/17 07:20:20;;;;;;;2.35;1.20;;;20.50;44.30;;;;;;5080495;27;43546;-60
2022/03/17 07:22:49;;;;;;;1.60;1.25;;;20.50;43.90;;;;;;5083732;27;43483;-60
2022/03/17 07:25:18;;;;;;;1.55;1.20;;;20.50;43.90;;;;;;5084145;27;43507;-61
2022/03/17 07:27:48;;;;;;;2.83;1.40;;;20.50;43.90;;;;;;5084510;27;43791;-61
2022/03/17 07:30:18;;;;;;;2.97;1.35;;;20.50;43.90;;;;;;5082534;28;43461;-60
2022/03/17 07:32:55;;;;;;;2.90;1.30;;;20.50;43.90;;;;;;5084728;27;43493;-60
2022/03/17 07:35:23;;;;;;;2.75;1.33;;;20.50;43.90;;;;;;5082934;28;43634;-60
2022/03/17 07:37:50;;;;;;;1.70;1.10;;;20.60;43.80;;;;;;5084103;27;43926;-61
2022/03/17 07:40:19;;;;;;;2.13;1.33;;;20.50;43.80;;;;;;5080635;28;43477;-61
2022/03/17 07:42:46;;;;;;;1.83;1.10;;;20.50;43.80;;;;;;5084071;27;43439;-60
2022/03/17 07:45:26;;;;;;;2.33;1.20;;;20.60;43.80;;;;;;5084140;27;43506;-60
2022/03/17 07:48:23;;;;;;;2.30;1.50;;;20.60;43.80;;;;;;5007983;28;44051;-60
2022/03/17 07:50:59;;;;;;;2.38;1.40;;;20.60;43.70;;;;;;5075536;28;43495;-61
2022/03/17 07:53:27;;;;;;;2.92;1.33;;;20.60;43.70;;;;;;5083029;28;43471;-60
2022/03/17 07:55:55;;;;;;;2.47;1.20;;;20.60;43.60;;;;;;5082352;28;43510;-60
2022/03/17 07:58:26;;;;;;;3.60;1.30;;;20.70;43.60;;;;;;5083437;28;44710;-61
2022/03/17 08:00:56;;;;;;;2.33;1.40;;;20.70;43.60;;;;;;5083629;27;44067;-61
2022/03/17 08:03:23;;;;;;;1.80;1.33;;;20.70;43.50;;;;;;5083891;27;43464;-60
2022/03/17 08:05:52;;;;;;;3.45;1.42;;;20.70;43.50;;;;;;5081121;28;44076;-61
2022/03/17 08:08:19;;;;;;;3.25;1.60;;;20.70;43.50;;;;;;5083725;27;44972;-60
2022/03/17 08:10:47;;;;;;;3.45;1.60;;;20.70;43.50;;;;;;5078816;27;43930;-60
2022/03/17 08:13:14;;;;;;;2.80;1.52;;;20.70;43.40;;;;;;5086484;28;43483;-61
2022/03/17 08:15:43;;;;;;;3.45;1.52;;;20.70;43.40;;;;;;5085160;28;43471;-61
2022/03/17 08:18:11;;;;;;;3.88;1.52;;;20.70;43.40;;;;;;5086992;28;44449;-61
2022/03/17 08:20:42;;;;;;;3.83;1.80;;;20.70;43.40;;;;;;5087091;27;43521;-61
2022/03/17 08:23:09;;;;;;;3.42;1.52;;;20.70;43.50;;;;;;5087172;27;43496;-61
2022/03/17 08:25:37;;;;;;;4.32;1.67;;;20.70;43.40;;;;;;5102679;27;43564;-61
2022/03/17 08:28:04;;;;;;;4.20;1.73;;;20.80;43.50;;;;;;5085799;28;43788;-60
2022/03/17 08:30:38;;;;;;;3.60;1.80;;;20.80;43.40;;;;;;5079038;28;44806;-60
2022/03/17 08:33:05;;;;;;;4.22;1.70;;;20.80;43.30;;;;;;5081439;28;43422;-61
2022/03/17 08:35:33;;;;;;;3.55;1.80;;;20.80;43.40;;;;;;5086723;27;43650;-61
2022/03/17 08:38:00;;;;;;;5.10;1.95;;;20.80;43.20;;;;;;5082160;28;44102;-61
2022/03/17 08:40:28;;;;;;;4.78;1.83;;;20.80;43.30;;;;;;5082576;27;44243;-60
2022/03/17 08:42:55;;;;;;;8.10;2.05;;;20.80;43.40;;;;;;5084029;27;43520;-60
2022/03/17 08:50:55;;;;;;;6.20;1.95;;;20.80;43.40;;;;;;5082823;27;43408;-60
2022/03/17 08:53:22;;;;;;;4.60;2.70;;;20.80;43.30;;;;;;5085395;28;43483;-60
2022/03/17 08:55:51;;;;;;;6.25;2.60;;;20.80;43.30;;;;;;5082876;27;43470;-60
2022/03/17 08:58:19;;;;;;;5.20;2.53;;;20.80;43.20;;;;;;5082914;27;44659;-60
2022/03/17 09:00:47;;;;;;;4.45;2.20;;;20.90;43.20;;;;;;5083242;27;43675;-62
2022/03/17 09:03:16;;;;;;;5.85;2.70;;;21.00;43.20;;;;;;5078435;27;43388;-61
2022/03/17 09:05:44;;;;;;;8.10;2.50;;;21.20;43.20;;;;;;5086176;27;43522;-61
2022/03/17 09:08:11;;;;;;;4.72;2.08;;;21.20;42.90;;;;;;5084930;28;43925;-61
2022/03/17 09:10:39;;;;;;;4.40;2.05;;;21.40;42.70;;;;;;5086070;28;43393;-61
2022/03/17 09:13:08;;;;;;;5.32;2.35;;;21.50;42.50;;;;;;5086474;27;43477;-61
2022/03/17 09:15:38;;;;;;;4.28;2.10;;;21.60;42.40;;;;;;5085525;27;43453;-61
2022/03/17 09:18:12;;;;;;;3.92;1.98;;;21.80;42.20;;;;;;5085795;27;44954;-62
2022/03/17 09:20:41;;;;;;;3.85;2.03;;;21.90;42.00;;;;;;5085165;28;43429;-61
2022/03/17 09:23:10;;;;;;;5.60;1.88;;;22.10;41.90;;;;;;5085634;27;43484;-61
2022/03/17 09:25:37;;;;;;;3.72;2.10;;;22.20;41.60;;;;;;5085983;27;43505;-61
2022/03/17 09:28:06;;;;;;;4.35;1.80;;;22.30;41.60;;;;;;5085595;27;44131;-61
2022/03/17 09:30:34;;;;;;;4.00;2.10;;;22.50;41.40;;;;;;5085666;27;43545;-61
2022/03/17 09:33:03;;;;;;;4.30;2.05;;;22.60;41.20;;;;;;5065422;28;43584;-61
2022/03/17 09:35:31;;;;;;;4.00;2.05;;;22.60;41.10;;;;;;5085959;27;43652;-60
2022/03/17 09:37:58;;;;;;;4.65;2.35;;;22.70;41.10;;;;;;5081345;28;44073;-62
2022/03/17 09:40:25;;;;;;;4.40;2.28;;;22.80;40.70;;;;;;5085943;27;43423;-61
2022/03/17 09:43:18;;;;;;;2.75;1.83;;;23.00;40.80;;;;;;5085692;27;43382;-61
2022/03/17 09:45:45;;;;;;;6.53;2.03;;;23.10;40.90;;;;;;5085289;28;43620;-60
2022/03/17 09:48:14;;;;;;;6.18;2.25;;;23.20;41.30;;;;;;5085556;27;44134;-61
2022/03/17 09:50:42;;;;;;;6.30;2.05;;;23.40;40.70;;;;;;5080458;28;43732;-62
2022/03/17 09:53:10;;;;;;;6.85;2.03;;;23.50;40.40;;;;;;5085207;28;43435;-62
2022/03/17 09:55:41;;;;;;;5.03;2.33;;;23.60;40.20;;;;;;5085296;27;43466;-62
2022/03/17 09:58:08;;;;;;;4.32;2.17;;;23.80;40.10;;;;;;5085385;27;44574;-61
2022/03/17 10:00:48;;;;;;;5.40;2.10;;;23.80;40.00;;;;;;5081948;27;43699;-62
2022/03/17 10:03:17;;;;;;;4.10;1.90;;;24.00;39.90;;;;;;5082234;27;43509;-61
2022/03/17 10:05:46;;;;;;;7.35;2.20;;;24.10;39.90;;;;;;5080225;28;43617;-62
2022/03/17 10:08:21;;;;;;;4.70;2.05;;;24.30;39.70;;;;;;5076539;28;44403;-62
2022/03/17 10:10:49;;;;;;;5.25;2.42;;;24.40;39.50;;;;;;5081417;28;43993;-62
2022/03/17 10:13:19;;;;;;;5.20;2.13;;;24.50;39.20;;;;;;5084881;27;43483;-62
2022/03/17 10:16:09;;;;;;;5.55;2.13;;;24.60;39.30;;;;;;5081006;28;43457;-61
2022/03/17 10:18:38;;;;;;;6.72;1.98;;;24.70;39.10;;;;;;5085135;27;44704;-61
2022/03/17 10:21:09;;;;;;;6.25;2.28;;;24.80;39.10;;;;;;5084696;27;44093;-61
2022/03/17 10:24:06;;;;;;;4.85;1.90;;;24.90;39.00;;;;;;5110384;27;43474;-61
2022/03/17 10:26:51;;;;;;;6.10;2.13;;;24.90;39.50;;;;;;5064318;27;44045;-61
2022/03/17 10:29:21;;;;;;;5.13;2.10;;;25.00;38.90;;;;;;5080957;27;43795;-62
2022/03/17 10:31:54;;;;;;;;;;;25.00;38.90;;;;;;5083049;27;43465;-62
2022/03/17 10:34:31;;;;;;;5.15;2.20;;;24.90;38.80;;;;;;5079938;27;43444;-61
2022/03/17 10:37:19;;;;;;;4.97;2.10;;;24.90;39.00;;;;;;5077931;27;43556;-62
2022/03/17 10:39:49;;;;;;;4.90;2.15;;;24.90;39.10;;;;;;5082238;27;44748;-62
2022/03/17 10:42:26;;;;;;;4.17;2.10;;;24.80;39.10;;;;;;5082212;27;44077;-61
2022/03/17 10:45:00;;;;;;;3.25;1.80;;;24.80;39.00;;;;;;5077106;27;43446;-62
2022/03/17 10:47:44;;;;;;;4.22;2.05;;;24.90;39.00;;;;;;5082275;27;43955;-61
2022/03/17 10:50:18;;;;;;;5.53;2.20;;;24.90;39.00;;;;;;5086130;27;43856;-62
2022/03/17 10:52:57;;;;;;;4.50;1.80;;;24.90;39.20;;;;;;5083517;27;43403;-62
2022/03/17 10:55:33;;;;;;;7.07;2.45;;;24.80;39.10;;;;;;5080088;27;43441;-62
2022/03/17 10:58:12;;;;;;;5.28;2.22;;;24.80;39.10;;;;;;5083024;27;43576;-61
2022/03/17 11:00:57;;;;;;;4.57;2.30;;;24.80;39.20;;;;;;5083268;27;44435;-61
2022/03/17 11:03:25;;;;;;;4.00;1.92;;;24.70;39.10;;;;;;5086034;27;43749;-61
2022/03/17 11:05:53;;;;;;;4.07;1.98;;;24.70;39.10;;;;;;5077638;27;43476;-61
2022/03/17 11:08:21;;;;;;;4.50;2.28;;;24.70;39.20;;;;;;5084325;27;43499;-62
2022/03/17 11:10:49;;;;;;;4.65;2.10;;;24.60;39.30;;;;;;5078628;27;43869;-61
2022/03/17 11:13:17;;;;;;;6.03;2.10;;;24.60;39.40;;;;;;5083155;27;43406;-62
2022/03/17 11:16:04;;;;;;;5.75;2.42;;;24.60;39.50;;;;;;5082549;27;43444;-61
2022/03/17 11:18:36;;;;;;;4.05;1.77;;;24.60;39.50;;;;;;5081756;27;43591;-62
2022/03/17 11:21:26;;;;;;;3.80;1.98;;;24.50;39.50;;;;;;5078639;27;43684;-63
2022/03/17 11:24:04;;;;;;;3.37;1.63;;;24.50;39.50;;;;;;5079961;27;43836;-62
2022/03/17 11:26:38;;;;;;;4.13;1.90;;;24.50;39.60;;;;;;5082228;27;43549;-61
2022/03/17 11:29:12;;;;;;;3.83;1.73;;;24.50;39.60;;;;;;5084551;27;44059;-61
2022/03/17 11:31:56;;;;;;;4.65;2.08;;;24.50;39.70;;;;;;5079340;27;43900;-62
2022/03/17 11:34:47;;;;;;;5.20;2.20;;;24.50;39.70;;;;;;5082569;27;43514;-62
2022/03/17 11:37:19;;;;;;;4.80;1.95;;;24.40;39.80;;;;;;5083237;27;43518;-61
2022/03/17 11:39:52;;;;;;;;;;;24.40;39.90;;;;;;5079796;27;43544;-61
2022/03/17 11:42:34;;;;;;;4.97;2.00;;;24.40;40.00;;;;;;5082503;27;44146;-62
2022/03/17 11:45:23;;;;;;;5.22;2.10;;;24.30;39.90;;;;;;5081906;27;43489;-62
2022/03/17 11:47:55;;;;;;;4.80;2.03;;;24.30;39.90;;;;;;5076191;27;43505;-61
2022/03/17 11:50:38;;;;;;;3.95;1.92;;;24.30;40.00;;;;;;5078197;27;43537;-62
2022/03/17 11:53:07;;;;;;;5.57;2.13;;;24.20;40.00;;;;;;5080677;27;43752;-62
2022/03/17 11:55:47;;;;;;;4.95;2.25;;;24.30;40.00;;;;;;5079144;27;43736;-62
2022/03/17 11:58:42;;;;;;;6.55;2.38;;;24.20;40.00;;;;;;5079138;27;43540;-62
2022/03/17 12:01:25;;;;;;;5.05;2.10;;;24.20;40.10;;;;;;5080582;27;43435;-61
2022/03/17 12:04:00;;;;;;;4.85;2.08;;;24.20;40.10;;;;;;5081744;27;44735;-61
2022/03/17 12:06:32;;;;;;;4.05;2.05;;;24.20;40.20;;;;;;5081904;27;43976;-61
2022/03/17 12:09:08;;;;;;;4.90;1.90;;;24.20;40.10;;;;;;5082416;27;43483;-61
2022/03/17 12:11:38;;;;;;;5.65;2.22;;;24.20;40.10;;;;;;5079576;27;43467;-62
2022/03/17 12:14:17;;;;;;;;;;;24.20;40.20;;;;;;5077892;27;43811;-60
2022/03/17 12:16:48;;;;;;;5.97;2.17;;;24.20;40.20;;;;;;5080990;27;43484;-61
2022/03/17 12:19:40;;;;;;;5.38;2.33;;;24.10;40.10;;;;;;5086411;27;44113;-61
2022/03/17 12:22:13;;;;;;;3.60;1.92;;;24.10;40.80;;;;;;5085155;27;43497;-62
2022/03/17 12:24:42;;;;;;;3.95;2.00;;;24.10;40.20;;;;;;5082384;27;44227;-62
2022/03/17 12:27:23;;;;;;;3.88;1.75;;;24.10;40.10;;;;;;5082981;27;43878;-61
2022/03/17 12:29:57;;;;;;;4.72;2.10;;;24.10;40.20;;;;;;5078404;27;43502;-60
2022/03/17 12:32:28;;;;;;;7.57;2.35;;;24.10;40.20;;;;;;5082256;27;43538;-60
2022/03/17 12:34:57;;;;;;;4.30;1.90;;;24.20;40.30;;;;;;5081276;27;45028;-61
2022/03/17 12:37:27;;;;;;;3.85;2.03;;;24.20;40.30;;;;;;5083511;27;43630;-61
2022/03/17 12:39:57;;;;;;;4.37;1.80;;;24.20;40.30;;;;;;5079267;27;43575;-61
2022/03/17 12:42:29;;;;;;;2.78;1.60;;;24.10;40.20;;;;;;5080676;27;43501;-61
2022/03/17 12:45:13;;;;;;;4.43;2.15;;;24.20;40.30;;;;;;5081767;27;43867;-61
2022/03/17 12:47:50;;;;;;;2.55;1.50;;;24.10;40.20;;;;;;5079014;27;43734;-61
2022/03/17 12:50:18;;;;;;;4.88;1.90;;;24.10;40.10;;;;;;5080423;27;43554;-61
2022/03/17 12:52:50;;;;;;;6.22;2.30;;;24.10;40.10;;;;;;5080620;27;43501;-61
2022/03/17 12:55:21;;;;;;;5.45;2.10;;;24.10;40.30;;;;;;5081167;27;43814;-61
2022/03/17 12:57:49;;;;;;;4.53;2.50;;;24.10;40.30;;;;;;5082615;27;43779;-61
2022/03/17 13:00:23;;;;;;;3.30;1.83;;;24.10;40.30;;;;;;5085173;27;43500;-61
2022/03/17 13:02:54;;;;;;;4.00;2.33;;;24.00;40.20;;;;;;5089228;27;43594;-61
2022/03/17 13:08:11;;;;;;;4.55;1.80;;;24.00;40.30;;;;;;5084884;27;43980;-61
2022/03/17 13:16:14;;;;;;;4.03;1.90;;;24.00;40.10;;;;;;5083367;27;44083;-62
2022/03/17 13:18:45;;;;;;;4.03;1.77;;;24.00;40.10;;;;;;5084483;27;43929;-62
2022/03/17 13:21:14;;;;;;;4.70;1.83;;;24.00;40.10;;;;;;5082580;27;43567;-61
2022/03/17 13:23:41;;;;;;;5.82;1.80;;;24.00;40.10;;;;;;5084764;27;43608;-61
2022/03/17 13:26:20;;;;;;;5.05;1.83;;;24.00;40.10;;;;;;5081253;27;44252;-61
2022/03/17 13:29:00;;;;;;;3.95;2.20;;;24.00;40.00;;;;;;5084279;27;43796;-61